Time;durP1;ratioP1;P1;durP2;ratioP2;P2;SDS_P1;SDS_P2;PMS_P1;PMS_P2;Temp;Humidity;BMP_temperature;BMP_pressure;BME280_temperature;BME280_humidity;BME280_pressure;Samples;Min_cycle;Max_cycle;Signal;HPM_P1;HPM_P2
2022/09/07 00:00:48;;;;;;;5.32;2.80;;;;;;;17.94;82.05;95476.81;4987618;28;20191;-81
2022/09/07 00:03:13;;;;;;;5.43;2.75;;;;;;;17.97;81.36;95474.59;4989964;28;20184;-80
2022/09/07 00:05:42;;;;;;;5.03;2.53;;;;;;;18.03;80.40;95476.44;4968956;28;20184;-81
2022/09/07 00:08:09;;;;;;;3.15;2.40;;;;;;;18.07;80.28;95468.97;4992000;28;20367;-80
2022/09/07 00:10:34;;;;;;;3.15;2.35;;;;;;;18.09;80.19;95459.06;4981615;28;20211;-81
2022/09/07 00:12:59;;;;;;;6.53;3.00;;;;;;;18.07;79.64;95464.53;4991882;28;20218;-80
2022/09/07 00:15:25;;;;;;;2.58;2.05;;;;;;;18.02;79.99;95459.06;4988127;28;20263;-79
2022/09/07 00:17:51;;;;;;;6.43;2.10;;;;;;;18.04;79.44;95456.25;4969834;28;20231;-81
2022/09/07 00:20:16;;;;;;;3.85;2.08;;;;;;;18.02;80.04;95460.84;5001964;28;20211;-81
2022/09/07 00:22:41;;;;;;;4.80;2.92;;;;;;;17.95;80.04;95447.72;4989113;28;20230;-79
2022/09/07 00:25:07;;;;;;;4.85;2.65;;;;;;;17.90;80.66;95444.03;5002296;28;20210;-82
2022/09/07 00:27:33;;;;;;;5.40;2.42;;;;;;;17.82;80.82;95445.81;4988818;28;20212;-81
2022/09/07 00:29:58;;;;;;;5.20;2.50;;;;;;;17.75;81.21;95447.59;5003833;28;20584;-80
2022/09/07 00:32:23;;;;;;;3.67;2.58;;;;;;;17.76;81.63;95443.19;4985407;28;20652;-81
2022/09/07 00:34:49;;;;;;;4.63;2.42;;;;;;;17.70;80.86;95433.44;4979138;28;20647;-80
2022/09/07 00:37:15;;;;;;;5.45;2.33;;;;;;;17.75;80.15;95434.47;4975934;28;20212;-80
2022/09/07 00:39:40;;;;;;;6.88;2.28;;;;;;;17.74;80.86;95434.66;4988018;28;20188;-79
2022/09/07 00:42:06;;;;;;;8.90;2.72;;;;;;;17.77;80.32;95424.59;4985794;28;20198;-79
2022/09/07 00:44:55;;;;;;;6.85;2.95;;;;;;;17.80;80.37;95416.31;4986917;28;20219;-80
2022/09/07 00:47:34;;;;;;;6.18;2.30;;;;;;;17.81;80.55;95412.69;4990849;28;20215;-81
2022/09/07 00:50:05;;;;;;;6.30;2.80;;;;;;;17.76;80.76;95414.28;4990586;28;20184;-80
2022/09/07 00:52:30;;;;;;;6.00;2.17;;;;;;;17.77;81.03;95408.84;4967032;28;20210;-79
2022/09/07 00:54:59;;;;;;;7.43;2.30;;;;;;;17.83;80.81;95408.03;4977770;28;20174;-81
2022/09/07 00:57:26;;;;;;;5.35;2.70;;;;;;;17.83;81.31;95397.53;4987154;28;20207;-81
2022/09/07 00:59:52;;;;;;;3.75;2.55;;;;;;;17.87;81.41;95399.78;4989508;28;20183;-80
2022/09/07 01:02:18;;;;;;;2.90;2.50;;;;;;;17.91;81.67;95401.00;4982309;28;20598;-80
2022/09/07 01:04:45;;;;;;;4.70;2.47;;;;;;;17.88;81.97;95398.78;4979777;28;20298;-80
2022/09/07 01:07:11;;;;;;;7.95;3.00;;;;;;;17.88;82.26;95398.78;5001441;28;20203;-81
2022/09/07 01:09:36;;;;;;;9.52;2.72;;;;;;;17.93;82.11;95391.91;4975601;28;20258;-80
2022/09/07 01:12:02;;;;;;;3.83;2.60;;;;;;;17.99;81.93;95385.06;4998563;28;20202;-80
2022/09/07 01:14:36;;;;;;;4.75;2.65;;;;;;;17.95;82.57;95389.91;5002226;28;20199;-79
2022/09/07 01:17:26;;;;;;;4.63;2.85;;;;;;;17.98;82.80;95384.25;5001956;28;20622;-79
2022/09/07 01:20:14;;;;;;;4.70;2.60;;;;;;;17.96;83.27;95393.34;5011393;28;20206;-79
2022/09/07 01:22:54;;;;;;;5.03;2.72;;;;;;;17.93;83.40;95398.97;4996336;28;20667;-80
2022/09/07 01:25:51;;;;;;;4.13;2.55;;;;;;;17.94;83.71;95404.06;4986608;28;20715;-82
2022/09/07 01:28:22;;;;;;;4.70;2.78;;;;;;;17.92;83.85;95407.88;4970505;28;20215;-82
2022/09/07 01:30:54;;;;;;;3.00;2.60;;;;;;;17.91;84.11;95408.88;4993829;28;20251;-81
2022/09/07 01:33:31;;;;;;;10.63;3.10;;;;;;;17.94;84.23;95403.25;4968030;28;20207;-82
2022/09/07 01:36:09;;;;;;;4.65;2.78;;;;;;;17.87;84.51;95405.03;4975128;28;20226;-81
2022/09/07 01:38:38;;;;;;;5.68;3.05;;;;;;;17.80;85.21;95408.44;4979424;28;20201;-81
2022/09/07 01:41:08;;;;;;;5.90;2.90;;;;;;;17.75;85.26;95410.81;4976734;28;20187;-81
2022/09/07 01:43:44;;;;;;;5.53;3.05;;;;;;;17.67;85.81;95418.88;5007312;28;20290;-80
2022/09/07 01:46:24;;;;;;;2.83;2.47;;;;;;;17.67;85.09;95407.53;4985838;28;20206;-81
2022/09/07 01:48:51;;;;;;;4.68;2.58;;;;;;;17.64;84.27;95413.97;4976413;28;20183;-81
2022/09/07 01:51:20;;;;;;;4.25;2.47;;;;;;;17.71;83.87;95412.22;4994388;28;20188;-82
2022/09/07 01:53:50;;;;;;;3.80;2.65;;;;;;;17.77;82.65;95421.97;4988160;28;20175;-81
2022/09/07 01:56:23;;;;;;;7.93;2.83;;;;;;;17.74;81.34;95419.72;4972426;28;20205;-81
2022/09/07 01:58:55;;;;;;;6.40;2.75;;;;;;;17.76;81.28;95422.97;4990568;28;20238;-81
2022/09/07 02:01:40;;;;;;;3.47;2.38;;;;;;;17.83;80.13;95449.25;4967325;28;20246;-81
2022/09/07 02:04:09;;;;;;;4.43;2.03;;;;;;;17.79;80.42;95476.94;4979355;28;20212;-82
2022/09/07 02:06:43;;;;;;;5.78;2.35;;;;;;;17.82;79.77;95477.34;4980343;28;20217;-81
2022/09/07 02:09:18;;;;;;;4.28;2.10;;;;;;;17.80;80.03;95470.66;4984677;28;20188;-82
2022/09/07 02:11:46;;;;;;;3.97;2.78;;;;;;;17.71;81.85;95504.16;4976968;28;20804;-82
2022/09/07 02:14:20;;;;;;;5.28;3.10;;;;;;;17.82;82.24;95479.97;4984389;28;20531;-81
2022/09/07 02:16:59;;;;;;;4.60;3.40;;;;;;;17.72;83.42;95490.00;4981719;28;20243;-82
2022/09/07 02:19:28;;;;;;;7.25;3.40;;;;;;;17.71;83.65;95487.59;4977610;28;20190;-80
2022/09/07 02:21:58;;;;;;;5.68;3.75;;;;;;;17.63;84.81;95493.75;4986038;28;20199;-81
2022/09/07 02:24:27;;;;;;;12.85;3.72;;;;;;;17.60;85.01;95482.84;4989318;28;20283;-81
2022/09/07 02:26:54;;;;;;;4.22;3.17;;;;;;;17.57;85.04;95491.91;4988644;28;20222;-81
2022/09/07 02:29:20;;;;;;;7.80;3.92;;;;;;;17.52;85.84;95491.69;4974212;28;20271;-81
2022/09/07 02:31:46;;;;;;;6.95;3.90;;;;;;;17.52;85.85;95489.06;4985817;28;20214;-81
2022/09/07 02:34:12;;;;;;;5.78;3.65;;;;;;;17.52;86.40;95483.81;4983258;28;20226;-81
2022/09/07 02:36:44;;;;;;;7.65;3.70;;;;;;;17.50;86.71;95493.69;4983305;28;20207;-81
2022/09/07 02:39:09;;;;;;;6.65;4.00;;;;;;;17.51;86.63;95487.44;4998049;28;20179;-81
2022/09/07 02:41:40;;;;;;;6.78;4.13;;;;;;;17.49;86.91;95487.63;4991421;28;20222;-80
2022/09/07 02:44:16;;;;;;;6.40;4.60;;;;;;;17.51;86.86;95488.25;4997336;28;20203;-81
2022/09/07 02:46:47;;;;;;;8.20;3.30;;;;;;;17.46;87.49;95489.81;4983403;28;20710;-80
2022/09/07 02:49:24;;;;;;;8.63;3.92;;;;;;;17.48;87.02;95472.84;5005928;28;20190;-81
2022/09/07 02:52:03;;;;;;;5.88;3.53;;;;;;;17.50;87.15;95468.25;5007194;28;20493;-81
2022/09/07 02:54:57;;;;;;;6.90;3.40;;;;;;;17.52;86.62;95474.09;4991250;28;20191;-81
2022/09/07 02:57:48;;;;;;;5.68;3.70;;;;;;;17.50;86.52;95465.63;4997822;28;20207;-81
2022/09/07 03:00:24;;;;;;;4.22;3.35;;;;;;;17.49;86.70;95461.38;4981889;28;20212;-82
2022/09/07 03:03:05;;;;;;;5.75;3.40;;;;;;;17.51;86.47;95463.81;4982301;28;20191;-82
2022/09/07 03:05:44;;;;;;;7.20;3.65;;;;;;;17.45;86.96;95472.44;4979211;28;20757;-80
2022/09/07 03:08:36;;;;;;;6.60;3.75;;;;;;;17.37;86.91;95475.22;4977501;28;20219;-82
2022/09/07 03:11:03;;;;;;;4.90;2.90;;;;;;;17.35;86.60;95479.84;4994745;28;20187;-81
2022/09/07 03:13:29;;;;;;;7.82;3.92;;;;;;;17.27;87.96;95478.97;4985038;28;20194;-80
2022/09/07 03:15:55;;;;;;;7.93;3.75;;;;;;;17.25;88.65;95469.69;4978322;28;20195;-81
2022/09/07 03:18:21;;;;;;;5.45;3.45;;;;;;;17.10;90.10;95468.94;4984832;28;20338;-81
2022/09/07 03:20:47;;;;;;;7.32;3.70;;;;;;;17.13;89.32;95473.81;4980067;28;20553;-81
2022/09/07 03:23:12;;;;;;;6.88;4.00;;;;;;;17.08;88.82;95477.00;4989223;28;20179;-81
2022/09/07 03:25:37;;;;;;;5.95;3.45;;;;;;;17.01;89.66;95476.13;5006255;28;20612;-81
2022/09/07 03:28:03;;;;;;;7.10;4.00;;;;;;;17.00;89.86;95479.78;4997053;28;20705;-80
2022/09/07 03:30:29;;;;;;;6.28;3.40;;;;;;;16.94;90.45;95473.44;4985461;28;20715;-81
2022/09/07 03:32:54;;;;;;;6.55;3.50;;;;;;;16.93;90.36;95473.66;4981072;28;20233;-81
2022/09/07 03:35:20;;;;;;;5.53;3.67;;;;;;;16.97;89.77;95480.16;4979929;28;20299;-81
2022/09/07 03:37:45;;;;;;;8.88;3.33;;;;;;;16.91;89.98;95475.66;4970428;28;20210;-80
2022/09/07 03:40:12;;;;;;;9.45;3.70;;;;;;;16.86;90.39;95475.38;4970836;28;20539;-81
2022/09/07 03:42:38;;;;;;;6.50;3.35;;;;;;;16.89;90.34;95467.16;4986664;28;20198;-81
2022/09/07 03:45:05;;;;;;;5.68;2.90;;;;;;;16.95;89.79;95475.06;4976998;28;20568;-80
2022/09/07 03:47:33;;;;;;;6.63;3.10;;;;;;;16.94;89.63;95470.03;4995896;28;20529;-79
2022/09/07 03:49:58;;;;;;;8.57;3.60;;;;;;;16.87;89.49;95461.28;4992409;28;20184;-81
2022/09/07 03:52:23;;;;;;;8.10;3.83;;;;;;;16.87;89.36;95466.53;4970864;28;20183;-80
2022/09/07 03:54:48;;;;;;;5.63;3.42;;;;;;;16.85;89.92;95460.66;4987519;28;20199;-81
2022/09/07 03:57:14;;;;;;;6.05;3.30;;;;;;;16.85;89.80;95463.28;5002561;28;20286;-79
2022/09/07 03:59:39;;;;;;;4.15;3.47;;;;;;;16.78;89.77;95459.78;4985383;28;20235;-80
2022/09/07 04:02:05;;;;;;;7.60;3.40;;;;;;;16.76;89.81;95465.22;4974720;28;20192;-79
2022/09/07 04:04:30;;;;;;;8.32;3.30;;;;;;;16.80;89.60;95470.91;4979070;28;20210;-79
2022/09/07 04:06:56;;;;;;;6.18;3.95;;;;;;;16.79;89.36;95461.44;4984945;28;20225;-81
2022/09/07 04:09:21;;;;;;;6.68;3.45;;;;;;;16.81;88.98;95462.84;4978537;28;20179;-80
2022/09/07 04:11:46;;;;;;;8.80;3.38;;;;;;;16.74;88.69;95466.41;4977857;28;20617;-80
2022/09/07 04:14:12;;;;;;;7.10;3.63;;;;;;;16.76;89.75;95462.59;4978708;28;20206;-80
2022/09/07 04:16:37;;;;;;;6.90;3.17;;;;;;;16.78;89.78;95465.03;4994074;28;20199;-79
2022/09/07 04:19:03;;;;;;;5.28;3.20;;;;;;;16.78;89.43;95457.97;4975288;28;20190;-80
2022/09/07 04:21:30;;;;;;;4.70;3.17;;;;;;;16.75;89.44;95460.97;4977118;28;20190;-79
2022/09/07 04:23:55;;;;;;;6.72;3.38;;;;;;;16.68;89.13;95460.91;4984866;28;20204;-80
2022/09/07 04:26:29;;;;;;;8.52;3.00;;;;;;;16.67;89.22;95469.75;4982727;28;20227;-79
2022/09/07 04:28:54;;;;;;;6.80;2.92;;;;;;;16.72;88.94;95465.81;5001813;28;20222;-79
2022/09/07 04:31:20;;;;;;;7.90;2.80;;;;;;;16.73;89.29;95465.59;4976594;28;20179;-80
2022/09/07 04:33:47;;;;;;;5.18;3.30;;;;;;;16.66;88.82;95462.88;4983135;28;20176;-79
2022/09/07 04:36:14;;;;;;;6.53;3.17;;;;;;;16.69;88.96;95464.34;4968457;28;20210;-79
2022/09/07 04:38:39;;;;;;;5.88;3.38;;;;;;;16.66;89.22;95468.13;4972354;28;20593;-78
2022/09/07 04:41:09;;;;;;;6.32;3.22;;;;;;;16.68;89.85;95473.19;4983886;28;20238;-78
2022/09/07 04:43:36;;;;;;;10.05;2.92;;;;;;;16.60;90.22;95468.06;4984492;28;20716;-77
2022/09/07 04:46:02;;;;;;;3.65;2.75;;;;;;;16.61;90.31;95465.28;4991264;28;20194;-77
2022/09/07 04:48:27;;;;;;;8.88;3.28;;;;;;;16.59;89.94;95471.69;4994888;28;20275;-79
2022/09/07 04:50:53;;;;;;;4.72;3.30;;;;;;;16.55;90.64;95459.94;4977514;28;20275;-78
2022/09/07 04:53:18;;;;;;;5.40;3.65;;;;;;;16.58;90.10;95470.06;4987666;28;20699;-78
2022/09/07 04:55:44;;;;;;;5.85;2.90;;;;;;;16.56;90.73;95478.13;4967852;28;20238;-78
2022/09/07 04:58:09;;;;;;;5.78;3.58;;;;;;;16.58;90.60;95481.34;4986067;28;20199;-78
2022/09/07 05:00:35;;;;;;;5.70;3.42;;;;;;;16.63;91.28;95475.56;4984014;28;20792;-79
2022/09/07 05:03:00;;;;;;;4.80;3.20;;;;;;;16.68;90.87;95484.50;4990744;28;20215;-79
2022/09/07 05:05:25;;;;;;;5.15;3.25;;;;;;;16.67;90.92;95479.41;4983611;28;20278;-79
2022/09/07 05:07:51;;;;;;;7.13;3.70;;;;;;;16.78;90.92;95475.50;4993311;28;20346;-78
2022/09/07 05:10:19;;;;;;;4.75;3.03;;;;;;;16.82;90.60;95474.16;4970401;28;20613;-78
2022/09/07 05:12:44;;;;;;;7.22;3.97;;;;;;;16.93;89.75;95469.22;4965044;28;20176;-78
2022/09/07 05:15:10;;;;;;;3.33;3.08;;;;;;;16.85;89.76;95473.78;4970062;28;20186;-79
2022/09/07 05:17:35;;;;;;;5.55;3.42;;;;;;;16.87;90.29;95471.75;4975186;28;20372;-80
2022/09/07 05:20:01;;;;;;;5.68;3.50;;;;;;;16.87;89.82;95477.84;4989610;28;20180;-79
2022/09/07 05:22:26;;;;;;;6.70;3.42;;;;;;;16.89;89.62;95480.28;4990340;28;20305;-78
2022/09/07 05:24:52;;;;;;;6.05;3.67;;;;;;;16.92;89.16;95487.75;4969861;28;20703;-79
2022/09/07 05:27:17;;;;;;;4.72;3.10;;;;;;;16.98;88.70;95487.03;4981380;28;20216;-78
2022/09/07 05:29:42;;;;;;;6.20;3.40;;;;;;;17.03;88.48;95497.75;4971487;28;20187;-78
2022/09/07 05:32:08;;;;;;;5.10;3.30;;;;;;;17.01;88.33;95497.13;4966035;28;20184;-78
2022/09/07 05:34:33;;;;;;;9.13;3.75;;;;;;;17.08;88.00;95497.19;4975247;28;20579;-78
2022/09/07 05:36:59;;;;;;;5.32;3.33;;;;;;;17.14;87.74;95502.50;4988253;28;20281;-78
2022/09/07 05:39:25;;;;;;;7.53;3.40;;;;;;;17.21;86.56;95503.34;4998124;28;20184;-78
2022/09/07 05:41:50;;;;;;;5.75;3.15;;;;;;;17.34;86.17;95496.59;4992527;28;20685;-78
2022/09/07 05:44:16;;;;;;;10.00;3.20;;;;;;;17.32;86.05;95501.22;4980228;28;20295;-79
2022/09/07 05:46:42;;;;;;;4.65;3.00;;;;;;;17.34;86.34;95507.09;4989836;28;20910;-80
2022/09/07 05:49:08;;;;;;;7.35;3.13;;;;;;;17.39;86.43;95505.50;4987324;28;20266;-79
2022/09/07 05:51:35;;;;;;;6.75;3.00;;;;;;;17.31;85.91;95504.84;4989673;28;20203;-79
2022/09/07 05:54:01;;;;;;;6.55;2.95;;;;;;;17.45;85.35;95510.00;5008148;28;20198;-78
2022/09/07 05:56:26;;;;;;;8.68;3.28;;;;;;;17.55;85.26;95518.34;4993259;28;20211;-79
2022/09/07 05:58:51;;;;;;;8.30;2.35;;;;;;;17.78;83.86;95517.34;4978447;28;20242;-79
2022/09/07 06:01:17;;;;;;;7.32;2.42;;;;;;;18.03;82.68;95517.69;4974689;28;20269;-78
2022/09/07 06:03:43;;;;;;;6.93;2.42;;;;;;;18.08;81.70;95510.81;4987127;28;20195;-78
2022/09/07 06:06:09;;;;;;;6.63;2.47;;;;;;;18.36;80.49;95517.81;4974166;28;20202;-79
2022/09/07 06:08:36;;;;;;;7.57;3.03;;;;;;;18.43;80.61;95513.41;4980474;28;20660;-78
2022/09/07 06:11:06;;;;;;;7.75;2.63;;;;;;;18.63;78.66;95516.06;4967278;28;20188;-78
2022/09/07 06:13:32;;;;;;;5.75;2.70;;;;;;;18.88;77.77;95511.13;4982179;28;20187;-79
2022/09/07 06:16:02;;;;;;;4.38;2.15;;;;;;;18.82;78.41;95511.94;4990575;28;20214;-79
2022/09/07 06:18:30;;;;;;;6.90;2.20;;;;;;;18.96;77.98;95517.00;4975351;28;20551;-79
2022/09/07 06:20:55;;;;;;;7.82;2.40;;;;;;;19.05;77.26;95517.63;4976642;28;20879;-79
2022/09/07 06:23:20;;;;;;;4.55;2.90;;;;;;;18.98;77.43;95519.44;4984512;28;20187;-79
2022/09/07 06:25:49;;;;;;;4.22;2.80;;;;;;;19.07;76.85;95520.03;4999337;28;20270;-79
2022/09/07 06:28:14;;;;;;;3.97;2.42;;;;;;;18.95;77.70;95504.84;4985432;28;20257;-78
2022/09/07 06:30:39;;;;;;;5.50;2.42;;;;;;;18.94;77.43;95511.13;4969535;28;20183;-78
2022/09/07 06:33:05;;;;;;;6.10;2.40;;;;;;;18.88;77.88;95516.38;5002967;28;20876;-79
2022/09/07 06:35:30;;;;;;;10.90;2.85;;;;;;;18.83;77.93;95517.00;4985473;28;20191;-78
2022/09/07 06:37:55;;;;;;;7.50;2.83;;;;;;;18.80;78.48;95514.75;4964434;28;20258;-79
2022/09/07 06:40:21;;;;;;;5.78;2.30;;;;;;;18.79;78.60;95517.56;5002560;28;20188;-79
2022/09/07 06:42:46;;;;;;;5.82;2.90;;;;;;;18.80;78.55;95511.28;4970375;28;20188;-78
2022/09/07 06:45:12;;;;;;;5.65;2.70;;;;;;;18.74;78.80;95510.28;4986335;28;20226;-80
2022/09/07 06:47:37;;;;;;;6.13;3.08;;;;;;;18.76;79.41;95510.09;5001252;28;20207;-79
2022/09/07 06:50:03;;;;;;;7.50;3.03;;;;;;;18.75;79.17;95513.72;4996801;28;20210;-79
2022/09/07 06:52:28;;;;;;;11.55;3.28;;;;;;;18.78;79.24;95508.88;5012185;28;20190;-79
2022/09/07 06:54:53;;;;;;;11.05;3.15;;;;;;;18.89;79.18;95513.53;4988793;28;20179;-80
2022/09/07 06:57:18;;;;;;;8.20;2.83;;;;;;;18.95;78.85;95512.75;4992276;28;20676;-80
2022/09/07 06:59:44;;;;;;;7.90;2.58;;;;;;;19.01;78.73;95516.41;4980902;28;20236;-79
2022/09/07 07:02:11;;;;;;;5.82;2.38;;;;;;;19.14;79.38;95510.34;4993759;28;20187;-80
2022/09/07 07:04:36;;;;;;;4.57;2.97;;;;;;;19.20;79.50;95509.53;4985382;28;20273;-80
2022/09/07 07:07:01;;;;;;;4.32;2.72;;;;;;;19.35;79.33;95510.16;5001106;28;20211;-80
2022/09/07 07:09:27;;;;;;;5.75;2.42;;;;;;;19.39;78.28;95514.00;4979007;28;20242;-80
2022/09/07 07:11:52;;;;;;;6.07;2.60;;;;;;;19.48;77.88;95518.03;4987274;28;20250;-80
2022/09/07 07:14:17;;;;;;;9.10;2.58;;;;;;;19.60;77.43;95512.19;4993936;28;20253;-83
2022/09/07 07:16:43;;;;;;;8.13;2.85;;;;;;;19.71;77.15;95530.84;4977617;28;20253;-79
2022/09/07 07:19:09;;;;;;;6.80;2.80;;;;;;;19.73;77.07;95525.34;4988593;28;20183;-81
2022/09/07 07:21:34;;;;;;;7.45;2.47;;;;;;;19.93;76.25;95535.84;4984355;28;20188;-80
2022/09/07 07:24:00;;;;;;;7.72;2.70;;;;;;;20.02;75.27;95538.06;5014766;28;20222;-79
2022/09/07 07:26:25;;;;;;;7.72;2.67;;;;;;;20.18;74.46;95538.63;4991570;28;20245;-78
2022/09/07 07:28:53;;;;;;;7.10;3.72;;;;;;;20.21;74.74;95546.13;5003069;28;20194;-80
2022/09/07 07:31:20;;;;;;;8.43;2.65;;;;;;;20.29;75.08;95548.53;4971589;28;20184;-81
2022/09/07 07:33:47;;;;;;;7.28;2.97;;;;;;;20.17;75.07;95552.84;5010433;28;20196;-79
2022/09/07 07:36:30;;;;;;;7.80;2.97;;;;;;;20.31;74.77;95551.78;5005770;28;20566;-79
2022/09/07 07:38:56;;;;;;;9.00;3.38;;;;;;;20.34;75.28;95559.28;4997528;28;20590;-79
2022/09/07 07:41:24;;;;;;;5.80;2.65;;;;;;;20.44;75.29;95549.13;4980075;28;20233;-80
2022/09/07 07:43:55;;;;;;;7.22;2.80;;;;;;;20.48;75.12;95558.22;4970108;28;20207;-80
2022/09/07 07:46:22;;;;;;;5.63;2.80;;;;;;;20.50;74.73;95556.22;4979891;28;20209;-80
2022/09/07 07:48:47;;;;;;;6.78;2.83;;;;;;;20.58;74.56;95568.34;4988858;28;20199;-79
2022/09/07 07:51:13;;;;;;;8.60;3.30;;;;;;;20.67;74.68;95566.28;4985359;28;20191;-80
2022/09/07 07:53:40;;;;;;;5.90;2.88;;;;;;;20.73;73.86;95571.53;4984978;28;20730;-80
2022/09/07 07:56:06;;;;;;;13.63;2.80;;;;;;;20.83;73.77;95569.25;4969176;28;20198;-80
2022/09/07 07:58:32;;;;;;;6.03;2.63;;;;;;;20.96;72.79;95568.38;5003785;28;20187;-80
2022/09/07 08:01:04;;;;;;;8.80;2.90;;;;;;;21.10;73.26;95574.38;4996207;28;20191;-80
2022/09/07 08:03:33;;;;;;;7.13;3.00;;;;;;;20.90;73.09;95566.56;4982589;28;20199;-79
2022/09/07 08:06:06;;;;;;;9.32;2.90;;;;;;;21.06;72.77;95571.38;4978429;28;20215;-79
2022/09/07 08:08:33;;;;;;;8.85;2.92;;;;;;;21.06;72.63;95579.28;4993196;28;20794;-79
2022/09/07 08:11:00;;;;;;;9.65;3.00;;;;;;;21.23;71.59;95584.88;4987310;28;20275;-80
2022/09/07 08:13:29;;;;;;;6.65;3.00;;;;;;;21.37;70.53;95575.84;5005908;28;20245;-80
2022/09/07 08:15:57;;;;;;;7.07;3.10;;;;;;;21.41;70.10;95582.34;4985319;28;20200;-79
2022/09/07 08:18:23;;;;;;;8.70;2.70;;;;;;;21.54;70.00;95575.34;4985016;28;20195;-79
2022/09/07 08:20:48;;;;;;;5.28;2.80;;;;;;;21.59;70.12;95573.69;4983584;28;20192;-79
2022/09/07 08:23:14;;;;;;;5.43;2.38;;;;;;;21.54;70.72;95575.34;4966015;28;20214;-79
2022/09/07 08:25:51;;;;;;;4.15;2.85;;;;;;;21.61;70.10;95576.09;5013461;28;20269;-80
2022/09/07 08:28:16;;;;;;;4.90;2.70;;;;;;;21.73;69.32;95585.78;4998569;28;20242;-79
2022/09/07 08:30:41;;;;;;;8.05;3.00;;;;;;;21.78;68.82;95570.06;4971676;28;20636;-79
2022/09/07 08:33:07;;;;;;;8.77;2.72;;;;;;;21.77;67.92;95576.38;4989598;28;20187;-78
2022/09/07 08:35:32;;;;;;;6.28;2.28;;;;;;;21.99;67.79;95581.25;4968307;28;20199;-81
2022/09/07 08:37:57;;;;;;;7.30;2.65;;;;;;;22.02;68.14;95583.47;4981379;28;20676;-79
2022/09/07 08:40:22;;;;;;;6.30;2.45;;;;;;;22.04;67.77;95589.34;4995777;28;20230;-79
2022/09/07 08:43:11;;;;;;;5.22;2.58;;;;;;;22.02;67.61;95581.66;4972929;28;20191;-79
2022/09/07 08:45:44;;;;;;;9.52;3.20;;;;;;;22.17;68.68;95586.59;5005180;28;20212;-78
2022/09/07 08:48:13;;;;;;;7.60;2.65;;;;;;;22.38;67.57;95598.63;4985833;28;20270;-80
2022/09/07 08:50:53;;;;;;;6.80;2.55;;;;;;;22.40;66.88;95601.03;4980814;28;20180;-79
2022/09/07 08:53:19;;;;;;;7.53;2.50;;;;;;;22.67;66.00;95597.06;4994840;28;20245;-80
2022/09/07 08:56:00;;;;;;;5.53;2.42;;;;;;;22.81;65.55;95595.88;4982822;28;20242;-79
2022/09/07 08:58:49;;;;;;;5.60;2.90;;;;;;;22.67;64.44;95597.06;4987192;28;20218;-80
2022/09/07 09:01:20;;;;;;;7.63;2.35;;;;;;;22.87;63.33;95587.06;4993025;28;20179;-79
2022/09/07 09:03:48;;;;;;;5.00;2.47;;;;;;;22.71;63.73;95587.66;4977026;28;20194;-80
2022/09/07 09:06:32;;;;;;;4.63;2.83;;;;;;;22.96;63.86;95589.41;4979072;28;20621;-80
2022/09/07 09:09:16;;;;;;;4.30;2.70;;;;;;;22.99;64.21;95589.78;5005472;28;20188;-79
2022/09/07 09:11:51;;;;;;;6.20;2.70;;;;;;;22.82;63.95;95589.56;5002093;28;20260;-80
2022/09/07 09:14:32;;;;;;;8.32;2.70;;;;;;;22.72;64.76;95589.28;4978527;28;20187;-79
2022/09/07 09:17:08;;;;;;;7.93;2.97;;;;;;;22.63;64.77;95589.81;4988708;28;20202;-79
2022/09/07 09:20:15;;;;;;;5.00;3.00;;;;;;;22.70;64.56;95577.28;4993864;28;20187;-79
2022/09/07 09:22:42;;;;;;;7.63;2.70;;;;;;;23.03;64.08;95574.25;4991908;28;20194;-79
2022/09/07 09:25:18;;;;;;;8.95;2.88;;;;;;;23.04;63.80;95576.66;4976512;28;20203;-80
2022/09/07 09:27:43;;;;;;;8.23;2.78;;;;;;;23.14;62.96;95581.41;4994277;28;20218;-80
2022/09/07 09:30:18;;;;;;;6.18;2.53;;;;;;;23.34;62.96;95581.97;4991392;28;20183;-79
2022/09/07 09:32:45;;;;;;;14.85;3.10;;;;;;;23.38;61.65;95580.47;4975734;28;20179;-79
2022/09/07 09:35:32;;;;;;;6.75;2.47;;;;;;;23.25;60.22;95578.03;4985147;28;20699;-78
2022/09/07 09:37:57;;;;;;;7.55;2.72;;;;;;;23.43;61.32;95575.31;4992401;28;20739;-79
2022/09/07 09:40:26;;;;;;;5.95;2.60;;;;;;;23.54;61.40;95584.31;4986826;28;20198;-79
2022/09/07 09:43:03;;;;;;;6.93;2.42;;;;;;;23.82;59.80;95575.72;4975617;28;20187;-79
2022/09/07 09:45:32;;;;;;;5.22;2.38;;;;;;;23.95;58.86;95572.88;4977008;28;20238;-80
2022/09/07 09:47:59;;;;;;;3.85;2.00;;;;;;;23.96;59.14;95577.13;4974740;28;20203;-79
2022/09/07 09:50:36;;;;;;;11.27;2.80;;;;;;;23.84;59.53;95575.50;4991493;28;20609;-80
2022/09/07 09:53:04;;;;;;;7.85;2.58;;;;;;;23.65;58.78;95567.63;4974991;28;20281;-79
2022/09/07 09:55:31;;;;;;;5.78;2.63;;;;;;;23.64;57.95;95573.97;4988895;28;20271;-80
2022/09/07 09:58:00;;;;;;;4.78;2.10;;;;;;;23.81;59.21;95565.34;4993956;28;20672;-80
2022/09/07 10:00:26;;;;;;;7.35;2.45;;;;;;;23.67;60.07;95573.50;4988522;28;20188;-79
2022/09/07 10:03:17;;;;;;;6.03;2.83;;;;;;;23.48;58.56;95563.19;4985827;28;20191;-79
2022/09/07 10:05:45;;;;;;;8.48;2.47;;;;;;;23.40;59.80;95559.84;4979005;28;20219;-79
2022/09/07 10:08:19;;;;;;;6.22;2.35;;;;;;;23.28;59.82;95548.41;4984552;28;20265;-79
2022/09/07 10:11:04;;;;;;;7.50;2.78;;;;;;;23.41;60.14;95547.38;4974548;28;20264;-79
2022/09/07 10:13:33;;;;;;;3.67;2.10;;;;;;;23.33;59.52;95553.84;4989074;28;20199;-79
2022/09/07 10:16:02;;;;;;;7.13;2.10;;;;;;;23.36;57.82;95555.22;4989082;28;20183;-79
2022/09/07 10:18:34;;;;;;;4.95;2.47;;;;;;;23.55;57.86;95542.69;4987981;28;20183;-79
2022/09/07 10:21:21;;;;;;;7.30;2.65;;;;;;;23.73;56.80;95539.97;4980203;28;20183;-79
2022/09/07 10:23:53;;;;;;;10.25;2.40;;;;;;;23.73;57.38;95539.97;4988925;28;20183;-79
2022/09/07 10:26:24;;;;;;;5.50;2.30;;;;;;;23.98;56.83;95537.91;4972228;28;20237;-79
2022/09/07 10:29:14;;;;;;;8.73;2.58;;;;;;;24.05;57.00;95542.31;4978538;28;20656;-79
2022/09/07 10:32:06;;;;;;;5.25;2.75;;;;;;;24.24;56.14;95533.97;4986863;28;20228;-79
2022/09/07 10:34:51;;;;;;;3.58;2.40;;;;;;;24.29;56.05;95542.06;4985627;28;20183;-79
2022/09/07 10:37:23;;;;;;;5.03;2.65;;;;;;;24.39;53.39;95540.69;4975913;28;20212;-79
2022/09/07 10:40:05;;;;;;;5.20;2.35;;;;;;;24.25;53.29;95540.06;4998967;28;20208;-79
2022/09/07 10:42:34;;;;;;;4.07;2.17;;;;;;;24.22;53.38;95546.66;4989140;28;20293;-80
2022/09/07 10:45:08;;;;;;;6.10;2.20;;;;;;;24.25;50.51;95540.06;4971387;28;20207;-79
2022/09/07 10:47:42;;;;;;;5.05;2.13;;;;;;;24.09;50.03;95541.59;4995345;28;20209;-79
2022/09/07 10:50:13;;;;;;;3.45;1.42;;;;;;;24.02;47.10;95541.69;4971853;28;20187;-79
2022/09/07 10:52:55;;;;;;;2.53;1.40;;;;;;;24.43;47.25;95520.56;4971545;28;20194;-79
2022/09/07 10:55:31;;;;;;;2.17;1.70;;;;;;;24.47;47.09;95525.19;4989725;28;20190;-79
2022/09/07 10:58:36;;;;;;;3.47;1.70;;;;;;;24.72;46.75;95524.88;4997130;28;20214;-80
2022/09/07 11:01:26;;;;;;;4.30;1.85;;;;;;;24.93;46.08;95525.25;4974040;28;20203;-79
2022/09/07 11:04:24;;;;;;;3.80;1.75;;;;;;;24.78;45.55;95517.81;5008627;28;20191;-79
2022/09/07 11:06:51;;;;;;;4.55;1.85;;;;;;;25.04;46.95;95514.59;4977707;28;20214;-78
2022/09/07 11:09:47;;;;;;;3.88;1.83;;;;;;;25.13;44.97;95509.72;4989504;28;20195;-78
2022/09/07 11:12:29;;;;;;;3.15;1.88;;;;;;;25.28;45.26;95517.94;4980744;28;20183;-79
2022/09/07 11:15:04;;;;;;;4.70;2.00;;;;;;;25.54;45.61;95511.19;4997003;28;20273;-78
2022/09/07 11:17:39;;;;;;;5.20;1.90;;;;;;;25.73;44.97;95513.63;4979743;28;20194;-79
2022/09/07 11:20:17;;;;;;;2.85;1.88;;;;;;;25.54;45.03;95507.75;4991220;28;20194;-77
2022/09/07 11:22:54;;;;;;;2.75;1.70;;;;;;;25.67;45.19;95508.19;4997770;28;20189;-79
2022/09/07 11:25:32;;;;;;;3.55;1.73;;;;;;;25.88;43.42;95501.34;4994370;28;20283;-79
2022/09/07 11:28:01;;;;;;;4.32;1.77;;;;;;;25.93;45.12;95503.28;4980611;28;20297;-78
2022/09/07 11:30:36;;;;;;;3.35;1.85;;;;;;;25.88;44.12;95489.91;4997209;28;20183;-78
2022/09/07 11:33:21;;;;;;;8.57;2.20;;;;;;;25.74;44.20;95491.31;4979986;28;20210;-79
2022/09/07 11:36:01;;;;;;;2.83;1.70;;;;;;;25.89;44.68;95496.84;4970083;28;20246;-79
2022/09/07 11:38:33;;;;;;;10.52;2.20;;;;;;;26.06;45.67;95494.97;5008685;28;20187;-79
2022/09/07 11:41:14;;;;;;;5.25;1.65;;;;;;;25.73;46.26;95489.69;4982308;28;20282;-78
2022/09/07 11:43:51;;;;;;;3.92;1.73;;;;;;;25.88;45.61;95490.69;5002639;28;20314;-79
2022/09/07 11:46:23;;;;;;;5.03;1.80;;;;;;;25.55;45.84;95483.56;4980135;28;20233;-79
2022/09/07 11:48:52;;;;;;;4.93;2.33;;;;;;;25.77;45.84;95485.50;4984839;28;20233;-79